Time;durP1;ratioP1;P1;durP2;ratioP2;P2;SDS_P1;SDS_P2;PMS_P1;PMS_P2;Temp;Humidity;BMP_temperature;BMP_pressure;BME280_temperature;BME280_humidity;BME280_pressure;Samples;Min_cycle;Max_cycle;Signal;HPM_P1;HPM_P2
2021/12/09 00:01:34;;;;;;;2.37;2.13;;;14.10;55.90;15.10;99465.00;;;;4969477;28;20636;-40
2021/12/09 00:04:02;;;;;;;2.70;2.33;;;14.10;56.10;15.10;99459.00;;;;4968181;28;20209;-40
2021/12/09 00:06:31;;;;;;;2.40;2.20;;;14.10;56.00;15.10;99459.00;;;;4968355;28;20184;-40
2021/12/09 00:09:09;;;;;;;2.20;2.00;;;14.00;56.10;15.10;99465.00;;;;4968706;28;20675;-40
2021/12/09 00:11:43;;;;;;;2.40;2.20;;;14.00;56.10;15.10;99468.00;;;;4968684;28;20196;-40
2021/12/09 00:14:11;;;;;;;2.57;2.20;;;14.00;56.00;15.10;99464.00;;;;4967659;28;20251;-41
2021/12/09 00:16:36;;;;;;;2.40;2.20;;;14.00;56.00;15.10;99464.00;;;;4967669;28;20177;-40
2021/12/09 00:19:02;;;;;;;2.53;2.33;;;14.00;56.00;15.10;99458.00;;;;4968810;28;20424;-40
2021/12/09 00:21:28;;;;;;;2.50;2.30;;;14.00;56.00;15.00;99452.00;;;;4968727;28;20176;-40
2021/12/09 00:23:53;;;;;;;2.27;2.07;;;14.00;56.10;15.00;99454.00;;;;4968468;28;20220;-40
2021/12/09 00:26:20;;;;;;;2.93;2.30;;;14.00;55.90;15.00;99462.00;;;;4968626;28;20249;-40
2021/12/09 00:28:45;;;;;;;2.60;2.40;;;14.00;55.90;15.00;99463.00;;;;4968614;28;20239;-40
2021/12/09 00:31:12;;;;;;;2.70;2.40;;;13.90;56.00;15.00;99464.00;;;;4968746;28;20200;-40
2021/12/09 00:33:43;;;;;;;2.70;2.20;;;13.90;56.00;15.00;99459.00;;;;4968864;28;20197;-40
2021/12/09 00:36:09;;;;;;;2.40;2.20;;;13.90;56.00;15.00;99458.00;;;;4968699;28;20180;-40
2021/12/09 00:38:40;;;;;;;2.40;2.20;;;13.90;56.00;15.00;99463.00;;;;4968604;28;20180;-40
2021/12/09 00:41:14;;;;;;;2.40;2.20;;;13.90;55.90;14.90;99457.00;;;;4968262;28;20165;-40
2021/12/09 00:43:41;;;;;;;2.50;2.30;;;13.90;56.30;14.90;99460.00;;;;4968584;28;20242;-40
2021/12/09 00:46:07;;;;;;;2.30;2.10;;;13.90;56.00;14.90;99465.00;;;;4968145;28;20227;-40
2021/12/09 00:48:34;;;;;;;2.23;2.03;;;13.90;56.00;14.90;99454.00;;;;4968274;28;20224;-40
2021/12/09 00:51:00;;;;;;;2.67;2.37;;;13.90;56.00;14.90;99453.00;;;;4968377;28;20229;-40
2021/12/09 00:53:25;;;;;;;2.20;2.00;;;13.90;55.90;14.90;99456.00;;;;4968829;28;20217;-40
2021/12/09 00:55:51;;;;;;;2.43;2.23;;;13.80;55.80;14.90;99464.00;;;;4968373;28;20638;-40
2021/12/09 00:58:17;;;;;;;2.50;2.30;;;13.80;55.80;14.90;99460.00;;;;4968270;28;20180;-40
2021/12/09 01:00:43;;;;;;;2.40;2.20;;;13.80;55.80;14.90;99463.00;;;;4968111;28;20455;-39
2021/12/09 01:03:09;;;;;;;2.50;2.30;;;13.80;55.80;14.90;99459.00;;;;4967807;28;20221;-40
2021/12/09 01:05:34;;;;;;;3.00;2.30;;;13.80;55.80;14.90;99465.00;;;;4968134;28;20237;-40
2021/12/09 01:08:00;;;;;;;2.40;2.20;;;13.80;55.90;14.90;99467.00;;;;4968309;28;20723;-40
2021/12/09 01:10:26;;;;;;;2.50;2.30;;;13.80;55.90;14.90;99466.00;;;;4968063;28;20165;-40
2021/12/09 01:12:52;;;;;;;2.40;2.20;;;13.80;56.00;14.90;99468.00;;;;4967630;28;20220;-40
2021/12/09 01:15:18;;;;;;;2.50;2.30;;;13.80;55.90;14.90;99478.00;;;;4968143;28;20209;-40
2021/12/09 01:17:44;;;;;;;2.40;2.20;;;13.70;55.90;14.80;99470.00;;;;4967874;28;20506;-40
2021/12/09 01:20:11;;;;;;;2.70;2.10;;;13.70;55.80;14.80;99483.00;;;;4967807;28;20150;-40
2021/12/09 01:22:42;;;;;;;2.27;2.07;;;13.80;55.80;14.90;99482.00;;;;4967386;28;20196;-40
2021/12/09 01:25:13;;;;;;;2.30;2.10;;;13.90;55.80;14.90;99474.00;;;;4967800;28;20196;-40
2021/12/09 01:27:42;;;;;;;2.40;2.20;;;14.10;55.90;15.00;99479.00;;;;4967633;28;20676;-40
2021/12/09 01:30:13;;;;;;;2.17;2.00;;;14.30;55.50;15.10;99489.00;;;;4967778;28;20264;-40
2021/12/09 01:32:42;;;;;;;3.47;2.10;;;14.60;55.30;15.20;99485.00;;;;4967057;28;20215;-40
2021/12/09 01:35:08;;;;;;;2.30;2.10;;;14.80;55.00;15.40;99499.00;;;;4967114;28;20641;-40
2021/12/09 01:37:35;;;;;;;2.63;2.30;;;15.20;54.80;15.50;99492.00;;;;4967427;28;20212;-40
2021/12/09 01:40:03;;;;;;;2.43;2.17;;;15.40;54.50;15.70;99490.00;;;;4968123;28;20212;-40
2021/12/09 01:42:28;;;;;;;3.70;2.30;;;15.50;54.30;15.80;99491.00;;;;4967271;28;20234;-40
2021/12/09 01:44:54;;;;;;;2.20;2.00;;;15.60;54.20;15.90;99480.00;;;;4967371;28;20890;-39
2021/12/09 01:47:20;;;;;;;3.23;2.00;;;15.60;54.20;16.00;99497.00;;;;4967211;28;20180;-40
2021/12/09 01:49:46;;;;;;;2.80;2.10;;;15.70;54.20;16.00;99425.00;;;;4967363;28;20339;-40
2021/12/09 01:52:11;;;;;;;2.30;2.10;;;15.80;54.20;16.10;99499.00;;;;4967129;28;20295;-40
2021/12/09 01:54:37;;;;;;;2.23;2.07;;;15.80;54.20;16.10;99510.00;;;;4967357;28;20789;-40
2021/12/09 01:57:03;;;;;;;2.33;2.10;;;15.80;54.20;16.20;99511.00;;;;4967096;28;20173;-40
2021/12/09 01:59:29;;;;;;;2.20;2.00;;;15.80;54.30;16.20;99516.00;;;;4949723;28;20184;-40
2021/12/09 02:01:54;;;;;;;2.27;2.03;;;15.80;54.30;16.30;99509.00;;;;4966627;28;20176;-40
2021/12/09 02:04:20;;;;;;;2.20;2.00;;;15.80;54.40;16.30;99513.00;;;;4967085;28;20184;-40
2021/12/09 02:06:46;;;;;;;2.30;2.10;;;15.70;54.50;16.30;99507.00;;;;4967624;28;20177;-40
2021/12/09 02:09:13;;;;;;;2.63;2.10;;;15.70;54.60;16.10;99504.00;;;;4966392;28;20179;-40
2021/12/09 02:11:40;;;;;;;2.20;2.00;;;15.70;54.60;16.30;99503.00;;;;4966909;28;20193;-40
2021/12/09 02:14:06;;;;;;;2.20;2.00;;;15.70;54.70;16.30;99504.00;;;;4966427;28;20185;-40
2021/12/09 02:16:32;;;;;;;2.20;2.00;;;15.60;54.60;16.30;99500.00;;;;4966904;28;20440;-40
2021/12/09 02:18:58;;;;;;;2.90;2.03;;;15.70;54.80;16.30;99498.00;;;;4966686;28;20810;-40
2021/12/09 02:21:29;;;;;;;1.90;1.80;;;15.60;54.90;16.30;99510.00;;;;4965911;28;20540;-40
2021/12/09 02:23:59;;;;;;;2.47;2.10;;;15.60;54.90;16.30;99501.00;;;;4966918;28;20749;-40
2021/12/09 02:26:31;;;;;;;2.10;2.00;;;15.60;55.00;16.30;99495.00;;;;4966712;28;20181;-40
2021/12/09 02:28:57;;;;;;;2.20;2.00;;;15.50;55.00;16.30;99498.00;;;;4966722;28;20172;-40
2021/12/09 02:31:23;;;;;;;2.20;2.10;;;15.50;55.00;16.30;99496.00;;;;4966457;28;20279;-40
2021/12/09 02:33:49;;;;;;;2.20;2.00;;;15.50;55.10;16.30;99488.00;;;;4966590;28;20256;-40
2021/12/09 02:36:15;;;;;;;3.27;2.17;;;15.50;55.10;16.30;99491.00;;;;4966842;28;20173;-40
2021/12/09 02:38:44;;;;;;;2.13;2.00;;;15.40;55.10;16.30;99496.00;;;;4966410;28;20175;-40
2021/12/09 02:41:19;;;;;;;2.43;1.90;;;15.40;55.10;16.30;99496.00;;;;4966810;28;20208;-40
2021/12/09 02:43:47;;;;;;;2.30;2.10;;;15.40;55.10;16.20;99490.00;;;;4967162;28;20200;-40
2021/12/09 02:46:13;;;;;;;2.03;1.83;;;15.40;55.70;16.20;99493.00;;;;4967145;28;20215;-40
2021/12/09 02:48:38;;;;;;;2.20;2.00;;;15.30;55.20;16.20;99500.00;;;;4967000;28;20185;-40
2021/12/09 02:51:05;;;;;;;2.30;2.10;;;15.30;55.10;16.20;99496.00;;;;4966223;28;20614;-40
2021/12/09 02:53:32;;;;;;;2.10;1.90;;;15.30;55.20;16.20;99494.00;;;;4966669;28;20232;-40
2021/12/09 02:55:58;;;;;;;2.10;1.90;;;15.30;55.30;16.20;99504.00;;;;4966788;28;20171;-40
2021/12/09 02:58:24;;;;;;;2.20;2.00;;;15.30;55.30;16.10;99494.00;;;;4966478;28;20169;-40
2021/12/09 03:01:13;;;;;;;2.17;1.97;;;15.20;55.30;16.10;99484.00;;;;4966438;28;20544;-40
2021/12/09 03:03:46;;;;;;;2.00;1.90;;;15.20;55.30;16.10;99486.00;;;;4966316;28;20196;-40
2021/12/09 03:06:12;;;;;;;2.20;2.00;;;15.20;55.40;16.10;99489.00;;;;4966095;28;20162;-40
2021/12/09 03:08:40;;;;;;;2.60;2.00;;;15.10;55.30;16.10;99495.00;;;;4966392;28;20169;-40
2021/12/09 03:11:32;;;;;;;2.30;2.10;;;15.10;55.30;16.00;99486.00;;;;4966397;28;20207;-40
2021/12/09 03:13:58;;;;;;;2.33;2.10;;;15.10;55.40;16.00;99492.00;;;;4965325;28;20291;-40
2021/12/09 03:16:24;;;;;;;2.00;1.90;;;15.10;55.50;16.00;99480.00;;;;4965947;28;20184;-40
2021/12/09 03:18:54;;;;;;;2.20;2.00;;;15.00;55.30;16.00;99482.00;;;;4966268;28;20173;-40
2021/12/09 03:21:26;;;;;;;2.43;2.00;;;15.00;55.40;16.00;99487.00;;;;4966543;28;20188;-40
2021/12/09 03:23:52;;;;;;;1.93;1.83;;;15.00;55.50;15.90;99489.00;;;;4966375;28;20193;-40
2021/12/09 03:26:23;;;;;;;2.30;2.10;;;15.00;55.40;15.90;99489.00;;;;4968026;28;20228;-40
2021/12/09 03:28:48;;;;;;;2.40;2.00;;;15.00;55.40;15.90;99492.00;;;;4969719;28;20683;-40
2021/12/09 03:31:14;;;;;;;2.00;1.90;;;14.90;55.40;15.90;99503.00;;;;4969764;28;20484;-40
2021/12/09 03:33:40;;;;;;;2.10;1.90;;;14.90;55.40;15.90;99495.00;;;;4970221;28;20185;-40
2021/12/09 03:36:06;;;;;;;2.00;1.90;;;14.90;55.40;15.80;99496.00;;;;4970181;28;20173;-39
2021/12/09 03:38:32;;;;;;;2.07;1.87;;;14.80;55.40;15.80;99496.00;;;;4969956;28;20640;-39
2021/12/09 03:40:58;;;;;;;2.03;1.83;;;14.80;55.40;15.80;99416.00;;;;4969721;28;20200;-40
2021/12/09 03:43:24;;;;;;;2.00;1.90;;;14.80;55.40;15.80;99488.00;;;;4969927;28;20321;-40
2021/12/09 03:45:53;;;;;;;2.30;2.10;;;14.80;55.40;15.80;99492.00;;;;4969691;28;20227;-40
2021/12/09 03:48:18;;;;;;;2.00;1.90;;;14.80;55.60;15.70;99493.00;;;;4969481;28;20162;-40
2021/12/09 03:50:45;;;;;;;2.20;2.00;;;14.80;55.50;15.70;99492.00;;;;4969356;28;20200;-40
2021/12/09 03:53:14;;;;;;;2.20;2.00;;;14.80;55.50;15.70;99484.00;;;;4969166;28;20247;-40
2021/12/09 03:55:40;;;;;;;2.27;2.07;;;14.70;55.50;15.70;99490.00;;;;4970097;28;20232;-40
2021/12/09 03:58:07;;;;;;;1.80;1.70;;;14.70;55.50;15.60;99491.00;;;;4969068;28;20656;-40
2021/12/09 04:00:33;;;;;;;2.10;1.90;;;14.70;55.40;15.60;99487.00;;;;4969397;28;20181;-40
2021/12/09 04:02:59;;;;;;;2.20;2.00;;;14.60;55.50;15.60;99497.00;;;;4968820;28;20213;-40
2021/12/09 04:05:24;;;;;;;2.03;1.93;;;14.60;55.50;15.60;99482.00;;;;4969280;28;20215;-40
2021/12/09 04:07:51;;;;;;;2.47;2.00;;;14.60;55.50;15.60;99485.00;;;;4969026;28;20184;-40
2021/12/09 04:10:17;;;;;;;2.30;2.00;;;14.60;55.50;15.50;99492.00;;;;4969354;28;20666;-40
2021/12/09 04:12:42;;;;;;;2.10;1.90;;;14.60;55.50;15.50;99506.00;;;;4969088;28;20257;-40
2021/12/09 04:15:09;;;;;;;2.03;1.87;;;14.60;55.50;15.50;99501.00;;;;4968999;28;20632;-40
2021/12/09 04:17:35;;;;;;;2.10;1.90;;;14.50;55.40;15.50;99499.00;;;;4969661;28;20500;-40
2021/12/09 04:20:02;;;;;;;2.00;1.80;;;14.50;55.50;15.50;99503.00;;;;4968956;28;20804;-40
2021/12/09 04:22:28;;;;;;;2.10;1.90;;;14.50;55.50;15.50;99506.00;;;;4968720;28;20737;-40
2021/12/09 04:24:53;;;;;;;2.00;1.80;;;14.50;55.50;15.40;99517.00;;;;4969057;28;20177;-40
2021/12/09 04:27:19;;;;;;;2.13;1.90;;;14.50;55.50;15.40;99512.00;;;;4969050;28;20185;-40
2021/12/09 04:29:45;;;;;;;2.07;1.87;;;14.50;55.60;15.40;99512.00;;;;4969221;28;20239;-40
2021/12/09 04:32:11;;;;;;;1.87;1.77;;;14.50;55.50;15.40;99514.00;;;;4968356;28;20897;-40
2021/12/09 04:34:36;;;;;;;2.33;2.00;;;14.40;55.50;15.40;99513.00;;;;4968528;28;20208;-40
2021/12/09 04:37:02;;;;;;;2.50;2.00;;;14.40;55.60;15.40;99511.00;;;;4968405;28;20173;-40
2021/12/09 04:39:28;;;;;;;1.80;1.70;;;14.40;55.70;15.40;99510.00;;;;4968523;28;20589;-40
2021/12/09 04:41:54;;;;;;;1.90;1.80;;;14.40;55.60;15.30;99505.00;;;;4968393;28;20185;-40
2021/12/09 04:44:21;;;;;;;2.50;1.93;;;14.40;55.50;15.30;99517.00;;;;4968695;28;20440;-40
2021/12/09 04:46:46;;;;;;;2.00;1.90;;;14.30;55.50;15.30;99515.00;;;;4968607;28;20185;-40
2021/12/09 04:49:12;;;;;;;1.80;1.70;;;14.30;55.60;15.30;99520.00;;;;4968550;28;20263;-40
2021/12/09 04:51:38;;;;;;;2.03;1.90;;;14.30;55.90;15.30;99520.00;;;;4968137;28;20201;-40
2021/12/09 04:54:04;;;;;;;2.20;2.00;;;14.20;55.50;15.30;99529.00;;;;4968424;28;20224;-40
2021/12/09 04:56:30;;;;;;;2.30;2.10;;;14.20;55.60;15.30;99538.00;;;;4968362;28;20177;-40
2021/12/09 04:58:56;;;;;;;2.00;1.80;;;14.20;55.50;15.30;99542.00;;;;4968178;28;20569;-40
2021/12/09 05:01:21;;;;;;;2.23;1.80;;;14.20;55.60;15.30;99543.00;;;;4968021;28;20285;-40
2021/12/09 05:03:48;;;;;;;2.10;1.90;;;14.20;55.60;15.20;99539.00;;;;4968419;28;20205;-40
2021/12/09 05:06:15;;;;;;;2.10;1.90;;;14.20;55.70;15.20;99529.00;;;;4951192;28;20424;-39
2021/12/09 05:08:45;;;;;;;1.97;1.83;;;14.10;55.60;15.20;99538.00;;;;4967780;28;20181;-40
2021/12/09 05:11:26;;;;;;;2.10;1.90;;;14.10;55.50;15.20;99554.00;;;;4968141;28;20201;-40
2021/12/09 05:13:51;;;;;;;2.10;1.90;;;14.10;55.50;15.20;99546.00;;;;4968414;28;20189;-40
2021/12/09 05:16:17;;;;;;;2.13;1.90;;;14.10;55.50;15.10;99560.00;;;;4968872;28;20184;-40
2021/12/09 05:18:44;;;;;;;1.90;1.80;;;14.10;55.60;15.10;99564.00;;;;4968116;28;20176;-40
2021/12/09 05:21:12;;;;;;;1.97;1.80;;;14.00;55.50;15.10;99567.00;;;;4967350;28;20284;-40
2021/12/09 05:23:39;;;;;;;2.10;1.90;;;14.00;55.60;14.80;99565.00;;;;4968196;28;20211;-40
2021/12/09 05:26:04;;;;;;;1.90;1.80;;;14.00;55.60;15.10;99574.00;;;;4966563;28;20176;-40
2021/12/09 05:28:33;;;;;;;2.10;1.90;;;14.00;55.60;15.10;99578.00;;;;4967556;28;20177;-40
2021/12/09 05:33:43;;;;;;;2.10;1.90;;;13.90;55.50;15.00;99584.00;;;;4967229;28;20359;-40
2021/12/09 05:36:09;;;;;;;1.80;1.70;;;13.90;55.50;15.00;99589.00;;;;4967700;28;20173;-40
2021/12/09 05:38:35;;;;;;;1.93;1.80;;;13.90;55.50;15.00;99595.00;;;;4967490;28;20231;-40
2021/12/09 05:41:01;;;;;;;2.10;1.90;;;13.90;55.90;15.00;99591.00;;;;4967163;28;20205;-40
2021/12/09 05:43:27;;;;;;;1.83;1.73;;;13.90;55.60;14.90;99597.00;;;;4967664;28;20446;-40
2021/12/09 05:45:52;;;;;;;2.33;1.90;;;13.90;55.70;14.90;99523.00;;;;4967456;28;20177;-40
2021/12/09 05:48:18;;;;;;;3.33;2.10;;;13.90;55.80;14.90;99595.00;;;;4958806;28;20792;-40
2021/12/09 05:50:44;;;;;;;1.90;1.80;;;13.80;55.80;14.90;99598.00;;;;4966844;28;20228;-40
2021/12/09 05:53:10;;;;;;;2.13;1.70;;;13.80;55.70;14.90;99605.00;;;;4966950;28;20236;-41
2021/12/09 05:55:36;;;;;;;2.07;1.87;;;13.80;55.60;14.90;99598.00;;;;4967119;28;20180;-39
2021/12/09 05:58:02;;;;;;;2.07;1.90;;;13.80;55.70;14.90;99607.00;;;;4966682;28;20200;-40
2021/12/09 06:00:27;;;;;;;2.13;1.90;;;13.80;55.80;14.80;99602.00;;;;4967092;28;20209;-40
2021/12/09 06:02:53;;;;;;;2.10;1.90;;;13.70;56.40;14.80;99601.00;;;;4966702;28;20675;-40
2021/12/09 06:05:19;;;;;;;2.07;1.80;;;13.70;55.70;14.80;99599.00;;;;4967323;28;20172;-40
2021/12/09 06:07:46;;;;;;;2.00;1.80;;;13.70;55.80;14.80;99597.00;;;;4967295;28;20660;-40
2021/12/09 06:10:12;;;;;;;2.30;2.10;;;13.70;55.80;14.80;99608.00;;;;4966764;28;20173;-40
2021/12/09 06:12:38;;;;;;;2.00;1.80;;;13.70;55.80;14.80;99597.00;;;;4965912;28;20587;-41
2021/12/09 06:15:05;;;;;;;1.97;1.70;;;13.60;55.70;14.70;99598.00;;;;4966909;28;20180;-40
2021/12/09 06:17:30;;;;;;;2.10;1.90;;;13.60;55.70;14.70;99601.00;;;;4966672;28;20658;-41
2021/12/09 06:19:56;;;;;;;1.90;1.80;;;13.60;55.60;14.70;99597.00;;;;4966899;28;20166;-40
2021/12/09 06:22:22;;;;;;;2.00;1.80;;;13.60;55.70;14.70;99604.00;;;;4966035;28;20193;-40
2021/12/09 06:24:47;;;;;;;1.80;1.70;;;13.70;55.50;14.70;99603.00;;;;4967176;28;20663;-39
2021/12/09 06:27:13;;;;;;;1.97;1.70;;;13.70;55.40;14.80;99613.00;;;;4966739;28;20176;-41
2021/12/09 06:29:39;;;;;;;1.80;1.70;;;13.90;55.30;14.80;99599.00;;;;4966965;28;20209;-42
2021/12/09 06:32:05;;;;;;;2.10;1.90;;;14.10;55.10;14.90;99623.00;;;;4965731;28;20197;-40
2021/12/09 06:34:32;;;;;;;2.50;1.90;;;14.40;54.80;15.00;99613.00;;;;4966416;28;20181;-40
2021/12/09 06:36:57;;;;;;;2.90;1.90;;;14.60;54.40;15.10;99622.00;;;;4966516;28;20173;-40
2021/12/09 06:39:23;;;;;;;1.80;1.70;;;14.90;54.20;15.30;99626.00;;;;4966913;28;20532;-40
2021/12/09 06:41:49;;;;;;;1.77;1.67;;;15.20;54.10;15.50;99612.00;;;;4966025;28;20185;-40
2021/12/09 06:44:14;;;;;;;2.37;1.87;;;15.30;53.70;15.60;99608.00;;;;4966500;28;20193;-39
2021/12/09 06:46:40;;;;;;;1.93;1.73;;;15.50;53.60;15.70;99618.00;;;;4965328;28;20180;-41
2021/12/09 06:49:06;;;;;;;1.77;1.67;;;15.60;53.60;15.80;99608.00;;;;4966476;28;20200;-40
2021/12/09 06:51:32;;;;;;;1.80;1.70;;;15.70;53.60;15.90;99602.00;;;;4965856;28;20219;-40
2021/12/09 06:53:57;;;;;;;2.10;1.83;;;15.70;53.60;16.00;99611.00;;;;4964980;28;20197;-40
2021/12/09 06:56:25;;;;;;;1.77;1.67;;;15.70;53.60;16.10;99605.00;;;;4965972;28;20172;-40
2021/12/09 06:58:50;;;;;;;1.90;1.73;;;15.70;53.60;16.10;99612.00;;;;4966094;28;20232;-39
2021/12/09 07:01:16;;;;;;;2.10;1.90;;;15.70;53.50;16.10;99609.00;;;;4970109;28;20173;-39
2021/12/09 07:03:42;;;;;;;1.93;1.70;;;15.70;53.60;16.20;99601.00;;;;4973214;28;20259;-41
2021/12/09 07:06:11;;;;;;;1.83;1.73;;;15.70;53.60;16.20;99602.00;;;;4972991;28;20644;-41
2021/12/09 07:08:43;;;;;;;2.23;1.90;;;15.70;53.70;16.20;99608.00;;;;4972990;28;20189;-40
2021/12/09 07:11:09;;;;;;;1.97;1.80;;;15.70;53.80;16.20;99608.00;;;;4972707;28;20220;-39
2021/12/09 07:13:35;;;;;;;1.70;1.60;;;15.70;53.80;16.20;99603.00;;;;4972743;28;20639;-40
2021/12/09 07:16:01;;;;;;;1.70;1.60;;;15.70;53.90;16.20;99613.00;;;;4973429;28;20184;-39
2021/12/09 07:18:27;;;;;;;1.83;1.73;;;15.60;53.90;16.20;99612.00;;;;4973436;28;20164;-39
2021/12/09 07:20:53;;;;;;;4.07;1.97;;;15.60;54.00;16.20;99619.00;;;;4972791;28;20169;-40
2021/12/09 07:23:19;;;;;;;3.07;2.10;;;15.60;54.80;16.20;99619.00;;;;4972537;28;20239;-39
2021/12/09 07:25:45;;;;;;;3.67;2.00;;;15.60;54.60;16.20;99620.00;;;;4972837;28;20244;-41
2021/12/09 07:28:10;;;;;;;2.17;1.70;;;15.60;54.80;16.20;99613.00;;;;4972549;28;20586;-41
2021/12/09 07:30:36;;;;;;;3.63;2.00;;;15.60;55.30;16.20;99616.00;;;;4972620;28;20462;-41
2021/12/09 07:33:02;;;;;;;5.30;2.00;;;15.60;55.20;16.20;99624.00;;;;4972204;28;20321;-41
2021/12/09 07:35:30;;;;;;;4.53;2.10;;;15.50;55.80;16.20;99622.00;;;;4972842;28;20256;-40
2021/12/09 07:37:57;;;;;;;5.40;2.00;;;15.50;56.30;16.20;99636.00;;;;4971765;28;20204;-41
2021/12/09 07:40:23;;;;;;;4.83;1.90;;;15.50;56.30;16.20;99635.00;;;;4972756;28;20174;-41
2021/12/09 07:42:49;;;;;;;3.20;1.87;;;15.50;56.50;16.20;99628.00;;;;4971917;28;20608;-41
2021/12/09 07:45:15;;;;;;;4.47;2.10;;;15.50;56.50;16.20;99636.00;;;;4972661;28;20260;-41
2021/12/09 07:47:41;;;;;;;5.87;2.23;;;15.40;56.30;16.10;99643.00;;;;4972621;28;20263;-41
2021/12/09 07:50:07;;;;;;;9.10;2.50;;;15.40;56.40;16.10;99639.00;;;;4972631;28;20276;-41
2021/12/09 07:52:33;;;;;;;8.37;2.40;;;15.30;56.50;16.10;99646.00;;;;4969493;28;20240;-40
2021/12/09 07:54:59;;;;;;;9.27;2.67;;;15.30;56.40;16.10;99653.00;;;;4971634;28;20208;-41
2021/12/09 07:57:25;;;;;;;10.97;2.73;;;15.30;56.40;16.10;99652.00;;;;4972451;28;20173;-41
2021/12/09 07:59:50;;;;;;;7.67;2.60;;;15.30;56.30;16.00;99651.00;;;;4972571;28;20675;-40
2021/12/09 08:02:16;;;;;;;7.57;2.60;;;15.20;56.30;16.00;99648.00;;;;4971145;28;20193;-40
2021/12/09 08:04:42;;;;;;;6.33;2.30;;;15.20;56.20;16.00;99654.00;;;;4971973;28;20228;-40
2021/12/09 08:07:07;;;;;;;6.47;2.67;;;15.20;56.10;16.00;99664.00;;;;4972345;28;20181;-40
2021/12/09 08:09:33;;;;;;;12.77;2.90;;;15.10;56.20;16.00;99653.00;;;;4972068;28;20177;-40
2021/12/09 08:11:59;;;;;;;7.13;2.80;;;15.10;56.10;15.90;99650.00;;;;4971057;28;20219;-40
2021/12/09 08:14:24;;;;;;;3.40;2.40;;;15.10;56.10;15.90;99579.00;;;;4970941;28;20674;-40
2021/12/09 08:17:08;;;;;;;5.33;2.60;;;15.00;56.00;15.90;99656.00;;;;4972507;28;20453;-41
2021/12/09 08:19:34;;;;;;;5.27;2.33;;;15.00;56.10;15.80;99663.00;;;;4971856;28;20172;-41
2021/12/09 08:22:00;;;;;;;6.60;2.37;;;15.00;56.20;15.80;99652.00;;;;4971812;28;20184;-41
2021/12/09 08:24:26;;;;;;;8.37;2.73;;;14.90;56.10;15.80;99671.00;;;;4971413;28;20173;-40
2021/12/09 08:26:52;;;;;;;6.27;2.40;;;14.90;56.00;15.80;99669.00;;;;4971074;28;20169;-40
2021/12/09 08:29:18;;;;;;;4.60;2.50;;;14.90;56.10;15.80;99679.00;;;;4971807;28;20192;-40
2021/12/09 08:31:43;;;;;;;5.57;2.57;;;14.90;56.10;15.70;99671.00;;;;4971117;28;20197;-40
2021/12/09 08:34:09;;;;;;;5.83;2.30;;;14.80;56.00;15.70;99675.00;;;;4971104;28;20192;-40
2021/12/09 08:36:35;;;;;;;3.83;2.37;;;14.80;56.00;15.70;99673.00;;;;4971749;28;20535;-40
2021/12/09 08:39:01;;;;;;;3.23;2.27;;;14.80;56.00;15.70;99684.00;;;;4970620;28;20220;-40
2021/12/09 08:41:26;;;;;;;4.57;2.47;;;14.80;56.70;15.70;99680.00;;;;4970563;28;20185;-40
2021/12/09 08:43:52;;;;;;;4.33;2.30;;;14.70;56.00;15.60;99690.00;;;;4971215;28;20278;-40
2021/12/09 08:46:18;;;;;;;4.20;2.10;;;14.70;56.10;15.60;99681.00;;;;4971848;28;20264;-40
2021/12/09 08:48:44;;;;;;;4.93;2.30;;;14.70;56.10;15.60;99690.00;;;;4971361;28;20193;-40
2021/12/09 08:51:10;;;;;;;4.07;2.47;;;14.70;56.10;15.60;99680.00;;;;4970687;28;20255;-40
2021/12/09 08:53:36;;;;;;;6.97;2.37;;;14.60;56.00;15.50;99684.00;;;;4971075;28;20323;-40
2021/12/09 08:56:02;;;;;;;4.00;2.30;;;14.60;56.00;15.50;99682.00;;;;4971436;28;20252;-40
2021/12/09 08:58:30;;;;;;;3.33;2.30;;;14.60;56.00;15.50;99681.00;;;;4971182;28;20197;-40
2021/12/09 09:00:57;;;;;;;4.37;2.20;;;14.60;56.00;15.50;99675.00;;;;4970049;28;20169;-40
2021/12/09 09:03:24;;;;;;;3.93;2.30;;;14.60;56.00;15.40;99683.00;;;;4968690;28;20719;-40
2021/12/09 09:05:51;;;;;;;3.43;2.00;;;14.60;55.90;15.40;99687.00;;;;4959134;28;20185;-40
2021/12/09 09:08:17;;;;;;;3.73;2.40;;;14.50;55.90;15.40;99688.00;;;;4970393;28;20170;-40
2021/12/09 09:10:44;;;;;;;3.30;2.40;;;14.50;55.90;15.40;99691.00;;;;4969449;28;20181;-40
2021/12/09 09:13:11;;;;;;;2.63;2.20;;;14.50;56.00;15.40;99681.00;;;;4970561;28;20219;-40
2021/12/09 09:15:37;;;;;;;3.43;2.50;;;14.50;55.80;15.30;99689.00;;;;4970525;28;20404;-40
2021/12/09 09:18:04;;;;;;;4.33;2.40;;;14.50;56.00;15.30;99696.00;;;;4970410;28;20660;-40
2021/12/09 09:20:30;;;;;;;2.63;2.13;;;14.40;56.00;15.30;99687.00;;;;4965386;28;20694;-40
2021/12/09 09:22:56;;;;;;;3.47;2.10;;;14.40;55.90;15.30;99696.00;;;;4973217;28;20489;-40
2021/12/09 09:25:29;;;;;;;4.47;2.30;;;14.40;56.00;15.30;99704.00;;;;4970818;28;20177;-40
2021/12/09 09:27:56;;;;;;;3.70;2.17;;;14.40;56.00;15.30;99698.00;;;;4950951;28;20165;-40
2021/12/09 09:30:22;;;;;;;3.70;2.50;;;14.40;56.00;15.20;99701.00;;;;4951207;28;20660;-40
2021/12/09 09:32:49;;;;;;;2.87;2.20;;;14.40;56.00;15.20;99704.00;;;;4950489;28;20209;-40
2021/12/09 09:35:15;;;;;;;3.57;2.30;;;14.30;55.90;15.20;99698.00;;;;4951339;28;20244;-40
2021/12/09 09:37:41;;;;;;;2.63;2.20;;;14.30;56.00;15.20;99701.00;;;;4951164;28;20166;-40
2021/12/09 09:40:13;;;;;;;2.20;2.00;;;14.30;56.00;15.20;99693.00;;;;4950561;28;20724;-40
2021/12/09 09:45:06;;;;;;;2.90;2.30;;;14.30;56.20;15.20;99699.00;;;;4951269;28;20185;-40
2021/12/09 09:47:32;;;;;;;2.50;2.07;;;14.20;56.20;15.10;99693.00;;;;4951059;28;20193;-40
2021/12/09 09:49:58;;;;;;;2.30;2.10;;;14.20;56.10;15.10;99698.00;;;;4950916;28;20573;-40
2021/12/09 09:52:24;;;;;;;2.30;1.90;;;14.20;56.00;15.10;99704.00;;;;4950157;29;20221;-40
2021/12/09 09:54:51;;;;;;;3.33;2.10;;;14.20;56.10;15.10;99699.00;;;;4950897;28;20174;-40
2021/12/09 09:57:16;;;;;;;2.70;2.20;;;14.20;56.00;15.10;99698.00;;;;4950670;28;20551;-40
2021/12/09 09:59:42;;;;;;;2.43;2.00;;;14.20;56.00;15.10;99695.00;;;;4950540;28;20172;-40
2021/12/09 10:02:10;;;;;;;2.77;2.20;;;14.20;56.00;15.10;99695.00;;;;4950430;28;20671;-40
2021/12/09 10:04:44;;;;;;;2.83;2.17;;;14.20;56.20;15.10;99704.00;;;;4950348;28;20285;-40
2021/12/09 10:07:11;;;;;;;2.60;2.30;;;14.20;56.20;15.10;99711.00;;;;4950864;28;20176;-40
2021/12/09 10:09:37;;;;;;;2.70;2.17;;;14.20;56.20;15.00;99713.00;;;;4950449;29;20193;-40
2021/12/09 10:12:03;;;;;;;2.40;2.20;;;14.10;56.10;15.00;99699.00;;;;4949694;29;20656;-40
2021/12/09 10:14:34;;;;;;;2.70;2.10;;;14.10;56.10;15.00;99697.00;;;;4949684;28;20192;-39
2021/12/09 10:17:27;;;;;;;2.63;2.30;;;14.10;56.10;15.00;99703.00;;;;4950461;28;20158;-40
2021/12/09 10:20:01;;;;;;;2.60;2.33;;;14.10;56.10;15.00;99693.00;;;;4949386;29;20216;-40
2021/12/09 10:22:33;;;;;;;2.80;2.13;;;14.10;56.10;15.00;99683.00;;;;4948638;29;20193;-39
2021/12/09 10:25:00;;;;;;;2.73;2.20;;;14.10;56.10;15.00;99683.00;;;;4950964;28;20783;-40
2021/12/09 10:27:33;;;;;;;3.00;2.30;;;14.10;56.10;15.00;99682.00;;;;4950294;28;20693;-40
2021/12/09 10:30:16;;;;;;;2.63;2.00;;;14.10;56.80;15.00;99680.00;;;;4949989;28;20209;-39
2021/12/09 10:32:43;;;;;;;3.13;2.13;;;14.00;56.20;14.90;99674.00;;;;4949614;28;20696;-40
2021/12/09 10:35:11;;;;;;;2.30;2.10;;;14.00;56.20;15.00;99682.00;;;;4949820;28;20173;-39
2021/12/09 10:37:38;;;;;;;2.70;2.20;;;14.00;56.40;14.90;99670.00;;;;4950116;28;20189;-40
2021/12/09 10:40:21;;;;;;;2.30;2.10;;;14.00;56.20;14.90;99683.00;;;;4950092;28;20181;-39
2021/12/09 10:42:53;;;;;;;2.20;2.00;;;14.00;56.30;14.90;99681.00;;;;4949308;29;20197;-40
2021/12/09 10:45:30;;;;;;;2.27;2.07;;;14.00;56.20;14.90;99665.00;;;;4949799;28;20193;-40
2021/12/09 10:48:05;;;;;;;2.20;2.00;;;14.00;56.10;14.90;99674.00;;;;4950217;28;20273;-39
2021/12/09 10:50:47;;;;;;;2.20;2.00;;;14.00;56.10;14.90;99668.00;;;;4949972;28;20178;-40
2021/12/09 10:55:57;;;;;;;2.60;2.20;;;14.00;56.20;14.90;99663.00;;;;4949700;28;20205;-40
2021/12/09 10:58:32;;;;;;;2.23;2.00;;;14.00;56.10;14.90;99658.00;;;;4950155;28;20235;-39
2021/12/09 11:01:03;;;;;;;2.43;2.10;;;14.00;56.30;14.90;99664.00;;;;4949874;28;20656;-40
2021/12/09 11:03:37;;;;;;;1.93;1.83;;;14.00;56.20;14.90;99668.00;;;;4950161;28;20571;-39